Salt Lake City, Utah
Traffic Map
Current Weather Conditions
Salt Lake City, Utah
Few Clouds
Few Clouds
68°
Feels Like: 68°
Wind Chill: 68° Ceiling: Unl
Heat Index: 68° Visibility: 10mi
Dew Point: 47° Wind: 0mph
Humidity: 47% Direction: ° ()
Pressure: 30.23in Gusts: 0mph
Raw Report DataKSLC 271654Z 00000KT 10SM FEW025 20/08 A3023 RMK AO2 SLP199 FU FEW025 FU NW-N T02000083
Traffic Incident Summary
Active as of:
Severity:
Category:
InformationThere was an issue retrieving the traffic information for this location. Please try a different location or try again shortly.
Advertisements
Track Severe Weather on mobile